createdAt,value
2018-06-01T00:00:45.041Z,1.27
2018-06-01T00:03:12.587Z,1.20
2018-06-01T00:05:40.130Z,1.23
2018-06-01T00:08:08.453Z,1.20
2018-06-01T00:10:36.021Z,1.30
2018-06-01T00:13:03.568Z,1.07
2018-06-01T00:15:31.137Z,0.90
2018-06-01T00:17:58.683Z,1.40
2018-06-01T00:20:26.233Z,1.60
2018-06-01T00:22:53.806Z,1.53
2018-06-01T00:25:21.351Z,1.50
2018-06-01T00:27:48.912Z,1.50
2018-06-01T00:30:16.457Z,1.17
2018-06-01T00:32:44.029Z,1.80
2018-06-01T00:35:11.567Z,1.03
2018-06-01T00:37:39.128Z,1.90
2018-06-01T00:40:06.670Z,1.60
2018-06-01T00:42:34.984Z,1.40
2018-06-01T00:45:02.561Z,1.57
2018-06-01T00:47:30.109Z,1.50
2018-06-01T00:49:57.673Z,1.73
2018-06-01T00:52:25.221Z,1.60
2018-06-01T00:55:04.561Z,1.50
2018-06-01T00:57:32.103Z,1.30
2018-06-01T00:59:59.658Z,1.70
2018-06-01T01:02:27.230Z,1.37
2018-06-01T01:04:54.764Z,1.43
2018-06-01T01:07:23.101Z,1.30
2018-06-01T01:09:50.649Z,1.30
2018-06-01T01:12:18.213Z,1.50
2018-06-01T01:14:45.755Z,1.30
2018-06-01T01:17:13.296Z,1.50
2018-06-01T01:19:40.864Z,1.50
2018-06-01T01:22:08.405Z,1.33
2018-06-01T01:24:35.970Z,1.30
2018-06-01T01:27:03.513Z,1.07
2018-06-01T01:29:31.850Z,1.40
2018-06-01T01:31:59.403Z,1.40
2018-06-01T01:34:26.945Z,1.30
2018-06-01T01:36:54.505Z,1.13
2018-06-01T01:39:22.042Z,1.43
2018-06-01T01:41:49.605Z,1.83
2018-06-01T01:44:17.148Z,1.70
2018-06-01T01:46:44.721Z,1.43
2018-06-01T01:49:12.272Z,1.63
2018-06-01T01:51:39.822Z,2.20
2018-06-01T01:54:08.155Z,2.07
2018-06-01T01:56:35.691Z,1.70
2018-06-01T01:59:03.276Z,2.27
2018-06-01T02:01:30.821Z,1.70
2018-06-01T02:03:58.353Z,1.63
2018-06-01T02:06:26.686Z,2.00
2018-06-01T02:08:54.230Z,1.90
2018-06-01T02:11:21.799Z,2.20
2018-06-01T02:13:49.351Z,1.80
2018-06-01T02:16:16.901Z,2.07
2018-06-01T02:18:44.465Z,2.10
2018-06-01T02:21:12.016Z,2.13
2018-06-01T02:23:39.589Z,1.60
2018-06-01T02:26:07.130Z,2.60
2018-06-01T02:28:34.710Z,2.20
2018-06-01T02:31:02.264Z,2.23
2018-06-01T02:33:29.813Z,2.00
2018-06-01T02:35:57.383Z,2.23
2018-06-01T02:38:24.951Z,2.23
2018-06-01T02:40:52.493Z,2.17
2018-06-01T02:43:20.067Z,2.60
2018-06-01T02:45:47.615Z,1.73
2018-06-01T02:48:15.197Z,2.27
2018-06-01T02:50:42.730Z,2.47
2018-06-01T02:53:10.298Z,2.17
2018-06-01T02:55:37.837Z,2.10
2018-06-01T02:58:05.397Z,2.27
2018-06-01T03:00:32.941Z,2.60
2018-06-01T03:03:00.513Z,2.60
2018-06-01T03:05:28.063Z,2.33
2018-06-01T03:07:55.632Z,2.40
2018-06-01T03:10:23.196Z,2.60
2018-06-01T03:12:50.748Z,2.90
2018-06-01T03:15:18.291Z,3.17
2018-06-01T03:17:45.857Z,3.20
2018-06-01T03:20:13.410Z,3.50
2018-06-01T03:22:40.971Z,3.00
2018-06-01T03:25:08.515Z,3.73
2018-06-01T03:27:36.083Z,2.57
2018-06-01T03:30:03.633Z,3.10
2018-06-01T03:32:31.997Z,2.73
2018-06-01T03:35:00.318Z,2.70
2018-06-01T03:37:27.889Z,2.90
2018-06-01T03:39:55.436Z,2.47
2018-06-01T03:42:23.015Z,3.57
2018-06-01T03:44:50.563Z,3.70
2018-06-01T03:47:18.134Z,3.53
2018-06-01T03:49:45.675Z,3.33
2018-06-01T03:52:13.255Z,3.80
2018-06-01T03:54:40.794Z,3.33
2018-06-01T03:57:08.347Z,3.20
2018-06-01T03:59:35.889Z,3.30
2018-06-01T04:02:03.458Z,3.40
2018-06-01T04:04:31.001Z,3.03
2018-06-01T04:06:59.334Z,3.77
2018-06-01T04:09:28.747Z,2.90
2018-06-01T04:11:56.314Z,3.63
2018-06-01T04:14:23.849Z,3.40
2018-06-01T04:16:51.422Z,3.60
2018-06-01T04:19:18.964Z,3.43
2018-06-01T04:21:47.307Z,3.37
2018-06-01T04:27:07.485Z,3.50
2018-06-01T04:29:35.812Z,3.60
2018-06-01T04:32:03.387Z,3.83
2018-06-01T04:34:30.929Z,3.27
2018-06-01T04:36:58.493Z,3.47
2018-06-01T04:39:26.047Z,3.37
2018-06-01T04:41:53.595Z,3.37
2018-06-01T04:44:21.159Z,3.20
2018-06-01T04:46:48.718Z,3.50
2018-06-01T04:49:16.307Z,3.90
2018-06-01T04:51:43.867Z,3.10
2018-06-01T04:54:11.535Z,4.10
2018-06-01T04:56:39.098Z,3.70
2018-06-01T04:59:06.641Z,3.70
2018-06-01T05:01:34.210Z,3.70
2018-06-01T05:04:01.761Z,3.77
2018-06-01T05:06:29.314Z,4.00
2018-06-01T05:08:56.887Z,3.73
2018-06-01T05:11:24.421Z,3.63
2018-06-01T05:13:51.994Z,3.87
2018-06-01T05:16:19.538Z,3.57
2018-06-01T05:18:47.076Z,3.83
2018-06-01T05:21:14.657Z,3.90
2018-06-01T05:23:42.209Z,3.40
2018-06-01T05:26:09.794Z,3.30
2018-06-01T05:28:37.343Z,4.23
2018-06-01T05:31:04.899Z,4.10
2018-06-01T05:33:32.481Z,4.00
2018-06-01T05:36:01.553Z,3.83
2018-06-01T05:38:29.138Z,3.00
2018-06-01T05:40:56.691Z,3.10
2018-06-01T05:43:24.235Z,3.27
2018-06-01T05:45:51.809Z,3.03
2018-06-01T05:48:19.355Z,3.30
2018-06-01T05:50:46.926Z,3.10
2018-06-01T05:53:14.465Z,3.17
2018-06-01T05:55:42.008Z,3.40
2018-06-01T05:58:09.579Z,3.10
2018-06-01T06:00:37.134Z,3.03
2018-06-01T06:03:04.701Z,2.97
2018-06-01T06:05:32.257Z,3.53
2018-06-01T06:07:59.798Z,3.17
2018-06-01T06:10:27.365Z,3.33
2018-06-01T06:12:54.907Z,3.33
2018-06-01T06:15:23.333Z,3.20
2018-06-01T06:17:50.937Z,3.53
2018-06-01T06:20:18.477Z,3.10
2018-06-01T06:22:46.042Z,3.73
2018-06-01T06:25:13.590Z,3.23
2018-06-01T06:27:41.163Z,3.13
2018-06-01T06:30:09.487Z,3.73
2018-06-01T06:32:37.129Z,3.30
2018-06-01T06:35:04.721Z,3.27
2018-06-01T06:37:33.218Z,3.30
2018-06-01T06:40:00.786Z,3.30
2018-06-01T06:42:28.339Z,3.30
2018-06-01T06:44:55.907Z,4.10
2018-06-01T06:47:23.450Z,3.87
2018-06-01T06:49:51.029Z,4.23
2018-06-01T06:52:18.589Z,4.20
2018-06-01T06:54:46.125Z,4.07
2018-06-01T06:57:13.685Z,3.90
2018-06-01T06:59:41.222Z,4.00
2018-06-01T07:02:08.781Z,4.17
2018-06-01T07:04:36.345Z,4.00
2018-06-01T07:07:03.896Z,3.97
2018-06-01T07:09:31.465Z,4.17
2018-06-01T07:11:59.014Z,3.30
2018-06-01T07:14:26.561Z,4.13
2018-06-01T07:16:54.154Z,3.90
2018-06-01T07:19:21.695Z,3.70
2018-06-01T07:21:49.259Z,4.10
2018-06-01T07:24:16.821Z,4.30
2018-06-01T07:26:44.367Z,4.53
2018-06-01T07:29:11.934Z,4.00
2018-06-01T07:31:39.478Z,4.60
2018-06-01T07:34:07.051Z,4.23
2018-06-01T07:36:34.604Z,4.87
2018-06-01T07:39:02.194Z,4.50
2018-06-01T07:41:29.743Z,4.17
2018-06-01T07:43:57.280Z,4.60
2018-06-01T07:46:24.885Z,4.87
2018-06-01T07:48:52.445Z,4.90
2018-06-01T07:51:20.037Z,4.00
2018-06-01T07:53:48.347Z,3.90
2018-06-01T07:56:15.893Z,4.23
2018-06-01T07:58:43.461Z,4.27
2018-06-01T08:01:11.001Z,5.03
2018-06-01T08:03:38.613Z,4.30
2018-06-01T08:06:06.137Z,4.80
2018-06-01T08:08:34.613Z,4.07
2018-06-01T08:11:02.179Z,4.70
2018-06-01T08:13:29.725Z,4.17
2018-06-01T08:16:04.562Z,4.37
2018-06-01T08:18:32.103Z,4.83
2018-06-01T08:20:59.685Z,4.90
2018-06-01T08:23:27.235Z,4.67
2018-06-01T08:25:54.777Z,4.37
2018-06-01T08:28:38.500Z,4.80
2018-06-01T08:31:09.798Z,4.60
2018-06-01T08:33:37.356Z,4.40
2018-06-01T08:36:05.077Z,4.60
2018-06-01T08:38:32.662Z,3.93
2018-06-01T08:41:00.239Z,4.50
2018-06-01T08:43:27.789Z,4.47
2018-06-01T08:45:55.366Z,4.90
2018-06-01T08:48:22.909Z,4.50
2018-06-01T08:50:50.451Z,4.50
2018-06-01T08:53:18.787Z,4.23
2018-06-01T08:55:46.330Z,5.17
2018-06-01T08:58:14.665Z,4.47
2018-06-01T09:00:42.979Z,4.80
2018-06-01T09:03:16.204Z,4.33
2018-06-01T09:05:43.777Z,4.70
2018-06-01T09:08:32.124Z,4.93
2018-06-01T09:11:00.462Z,4.57
2018-06-01T09:13:28.005Z,5.10
2018-06-01T09:15:55.572Z,4.63
2018-06-01T09:18:23.143Z,4.67
2018-06-01T09:20:50.721Z,4.63
2018-06-01T09:23:26.186Z,4.40
2018-06-01T09:25:54.527Z,4.57
2018-06-01T09:28:22.080Z,4.40
2018-06-01T09:30:49.637Z,3.77
2018-06-01T09:33:17.205Z,4.70
2018-06-01T09:35:44.752Z,4.80
2018-06-01T09:38:12.329Z,5.00
2018-06-01T09:40:39.890Z,4.27
2018-06-01T09:43:07.452Z,4.10
2018-06-01T09:45:35.017Z,4.13
2018-06-01T09:48:02.567Z,4.83
2018-06-01T09:50:30.140Z,4.40
2018-06-01T09:52:58.612Z,4.53
2018-06-01T09:55:26.218Z,4.67
2018-06-01T09:57:55.110Z,4.57
2018-06-01T10:00:35.126Z,5.13
2018-06-01T10:03:02.707Z,4.67
2018-06-01T10:05:31.023Z,6.00
2018-06-01T10:07:58.618Z,4.03
2018-06-01T10:10:31.846Z,4.60
2018-06-01T10:12:59.443Z,4.60
2018-06-01T10:15:26.985Z,4.67
2018-06-01T10:17:54.537Z,4.77
2018-06-01T10:20:25.101Z,4.67
2018-06-01T10:22:52.645Z,5.07
2018-06-01T10:25:20.229Z,4.33
2018-06-01T10:27:47.781Z,4.53
2018-06-01T10:30:15.344Z,4.10
2018-06-01T10:32:42.905Z,4.23
2018-06-01T10:35:10.467Z,4.90
2018-06-01T10:37:41.074Z,4.40
2018-06-01T10:40:08.658Z,3.80
2018-06-01T10:42:36.219Z,3.60
2018-06-01T10:45:03.785Z,4.30
2018-06-01T10:47:31.320Z,3.90
2018-06-01T10:49:59.663Z,4.00
2018-06-01T10:52:27.211Z,4.73
2018-06-01T10:54:54.788Z,4.30
2018-06-01T10:57:22.326Z,4.13
2018-06-01T10:59:51.581Z,4.80
2018-06-01T11:02:19.160Z,3.87
2018-06-01T11:04:46.699Z,4.13
2018-06-01T11:07:14.277Z,5.10
2018-06-01T11:09:41.896Z,4.50
2018-06-01T11:12:16.100Z,4.40
2018-06-01T11:20:30.112Z,4.13
2018-06-01T11:22:57.683Z,4.60
2018-06-01T11:25:25.233Z,4.70
2018-06-01T11:30:46.180Z,3.60
2018-06-01T11:33:13.786Z,4.20
2018-06-01T11:35:41.347Z,4.10
2018-06-01T11:38:08.895Z,4.33
2018-06-01T11:40:36.467Z,4.93
2018-06-01T11:43:04.014Z,4.57
2018-06-01T11:45:31.594Z,3.80
2018-06-01T11:47:59.161Z,4.40
2018-06-01T11:50:37.151Z,4.70
2018-06-01T11:53:04.716Z,5.03
2018-06-01T11:55:32.270Z,5.20
2018-06-01T11:57:59.844Z,5.03
2018-06-01T12:00:27.393Z,5.20
2018-06-01T12:02:54.952Z,4.37
2018-06-01T12:05:25.637Z,4.43
2018-06-01T12:07:53.980Z,4.70
2018-06-01T12:10:21.574Z,4.90
2018-06-01T12:12:49.896Z,4.70
2018-06-01T12:15:17.465Z,4.57
2018-06-01T12:17:45.156Z,5.13
2018-06-01T12:20:12.637Z,5.07
2018-06-01T12:22:40.957Z,4.53
2018-06-01T12:25:08.795Z,4.10
2018-06-01T12:27:37.122Z,4.23
2018-06-01T12:30:04.702Z,4.47
2018-06-01T12:32:32.277Z,4.13
2018-06-01T12:35:00.606Z,4.30
2018-06-01T12:37:28.190Z,4.33
2018-06-01T12:39:55.782Z,4.23
2018-06-01T12:42:24.093Z,3.73
2018-06-01T12:45:02.297Z,4.43
2018-06-01T12:47:29.847Z,4.00
2018-06-01T12:49:57.393Z,4.57
2018-06-01T12:52:24.960Z,4.50
2018-06-01T12:54:52.513Z,4.20
2018-06-01T12:57:20.076Z,4.07
2018-06-01T12:59:47.665Z,4.23
2018-06-01T13:02:15.248Z,4.00
2018-06-01T13:04:42.803Z,3.90
2018-06-01T13:07:11.254Z,4.70
2018-06-01T13:09:38.818Z,3.67
2018-06-01T13:12:06.377Z,3.80
2018-06-01T13:14:33.944Z,4.20
2018-06-01T13:17:01.623Z,3.67
2018-06-01T13:19:48.377Z,4.43
2018-06-01T13:22:15.938Z,4.10
2018-06-01T13:24:44.245Z,3.60
2018-06-01T13:27:26.415Z,3.80
2018-06-01T13:29:54.075Z,4.20
2018-06-01T13:32:21.618Z,3.90
2018-06-01T13:34:49.949Z,3.93
2018-06-01T13:37:17.490Z,3.80
2018-06-01T13:39:45.070Z,3.97
2018-06-01T13:42:12.610Z,3.43
2018-06-01T13:44:40.183Z,3.90
2018-06-01T13:47:07.742Z,4.03
2018-06-01T13:49:35.291Z,4.03
2018-06-01T13:52:02.861Z,4.13
2018-06-01T13:54:31.139Z,4.73
2018-06-01T13:56:58.718Z,5.13
2018-06-01T13:59:26.271Z,4.70
2018-06-01T14:01:53.901Z,4.47
2018-06-01T14:04:21.501Z,4.83
2018-06-01T14:06:49.045Z,4.63
2018-06-01T14:09:16.796Z,4.50
2018-06-01T14:11:45.086Z,4.20
2018-06-01T14:14:12.645Z,5.17
2018-06-01T14:16:40.227Z,5.00
2018-06-01T14:19:07.821Z,4.73
2018-06-01T14:21:36.158Z,4.23
2018-06-01T14:24:03.730Z,4.57
2018-06-01T14:26:31.301Z,4.20
2018-06-01T14:28:59.641Z,4.37
2018-06-01T14:31:27.184Z,4.20
2018-06-01T14:33:54.749Z,4.80
2018-06-01T14:36:22.292Z,4.73
2018-06-01T14:38:49.922Z,5.03
2018-06-01T14:41:20.366Z,4.67
2018-06-01T14:43:47.976Z,4.20
2018-06-01T14:46:24.087Z,4.27
2018-06-01T14:49:12.106Z,5.17
2018-06-01T14:51:53.301Z,5.10
2018-06-01T14:54:20.929Z,4.13
2018-06-01T14:56:55.031Z,4.50
2018-06-01T14:59:34.537Z,4.40
2018-06-01T15:02:02.105Z,4.43
2018-06-01T15:04:29.693Z,4.90
2018-06-01T15:09:57.506Z,4.47
2018-06-01T15:12:25.838Z,4.30
2018-06-01T15:14:53.396Z,3.90
2018-06-01T15:17:24.948Z,4.37
2018-06-01T15:19:52.489Z,3.43
2018-06-01T15:22:20.034Z,4.40
2018-06-01T15:24:47.598Z,3.90
2018-06-01T15:27:15.137Z,3.47
2018-06-01T15:29:43.477Z,3.50
2018-06-01T15:32:11.022Z,3.83
2018-06-01T15:34:38.566Z,4.03
2018-06-01T15:37:06.135Z,4.10
2018-06-01T15:39:33.675Z,4.13
2018-06-01T15:42:01.248Z,3.73
2018-06-01T15:44:28.793Z,4.20
2018-06-01T15:46:56.339Z,3.73
2018-06-01T15:49:24.680Z,3.60
2018-06-01T15:51:52.222Z,4.13
2018-06-01T15:54:19.773Z,3.90
2018-06-01T15:56:47.337Z,3.83
2018-06-01T15:59:14.873Z,3.50
2018-06-01T16:01:42.442Z,3.27
2018-06-01T16:04:09.986Z,3.60
2018-06-01T16:06:44.082Z,3.30
2018-06-01T16:09:12.389Z,3.07
2018-06-01T16:11:39.933Z,3.50
2018-06-01T16:14:07.493Z,2.90
2018-06-01T16:16:35.031Z,3.70
2018-06-01T16:19:02.594Z,3.50
2018-06-01T16:21:30.921Z,3.53
2018-06-01T16:23:58.486Z,4.10
2018-06-01T16:26:26.066Z,3.13
2018-06-01T16:28:53.612Z,3.27
2018-06-01T16:31:24.751Z,3.50
2018-06-01T16:33:52.309Z,3.73
2018-06-01T16:36:19.874Z,3.40
2018-06-01T16:38:47.417Z,3.20
2018-06-01T16:41:14.984Z,3.30
2018-06-01T16:43:42.538Z,3.37
2018-06-01T16:49:08.748Z,3.10
2018-06-01T16:51:36.317Z,2.77
2018-06-01T16:54:12.040Z,3.43
2018-06-01T16:56:40.402Z,2.87
2018-06-01T16:59:13.711Z,2.73
2018-06-01T17:01:42.061Z,3.60
2018-06-01T17:04:09.617Z,2.67
2018-06-01T17:06:47.881Z,3.20
2018-06-01T17:09:15.417Z,2.77
2018-06-01T17:11:43.750Z,2.63
2018-06-01T17:14:11.361Z,2.60
2018-06-01T17:16:39.669Z,3.13
2018-06-01T17:19:07.216Z,2.90
2018-06-01T17:21:34.841Z,3.00
2018-06-01T17:24:03.169Z,2.70
2018-06-01T17:26:30.764Z,3.07
2018-06-01T17:28:58.328Z,2.70
2018-06-01T17:31:26.851Z,3.20
2018-06-01T17:33:54.433Z,3.07
2018-06-01T17:36:21.980Z,3.70
2018-06-01T17:38:49.537Z,3.50
2018-06-01T17:41:17.117Z,4.70
2018-06-01T17:43:44.668Z,10.70
2018-06-01T17:46:12.212Z,3.40
2018-06-01T17:48:39.784Z,3.50
2018-06-01T17:51:10.919Z,3.43
2018-06-01T17:53:38.464Z,3.57
2018-06-01T17:56:06.037Z,3.37
2018-06-01T17:58:33.572Z,3.47
2018-06-01T18:01:01.876Z,4.13
2018-06-01T18:03:29.445Z,3.73
2018-06-01T18:05:56.988Z,4.47
2018-06-01T18:08:24.549Z,3.80
2018-06-01T18:10:52.096Z,3.60
2018-06-01T18:13:19.769Z,3.40
2018-06-01T18:15:47.400Z,3.50
2018-06-01T18:18:15.730Z,4.13
2018-06-01T18:20:43.268Z,4.17
2018-06-01T18:23:10.843Z,3.50
2018-06-01T18:25:38.389Z,3.23
2018-06-01T18:28:05.958Z,3.13
2018-06-01T18:30:33.501Z,2.80
2018-06-01T18:33:01.074Z,2.60
2018-06-01T18:35:28.626Z,2.90
2018-06-01T18:37:56.197Z,2.60
2018-06-01T18:40:23.740Z,2.40
2018-06-01T18:42:51.311Z,2.40
2018-06-01T18:45:18.852Z,2.87
2018-06-01T18:47:46.421Z,3.25
2018-06-01T18:50:13.967Z,3.07
2018-06-01T18:52:41.548Z,3.00
2018-06-01T18:55:09.088Z,2.63
2018-06-01T18:57:36.671Z,3.13
2018-06-01T19:00:04.247Z,3.40
2018-06-01T19:02:31.813Z,3.33
2018-06-01T19:04:59.366Z,2.60
2018-06-01T19:07:26.934Z,2.83
2018-06-01T19:09:54.484Z,2.60
2018-06-01T19:12:22.053Z,2.83
2018-06-01T19:14:50.454Z,2.70
2018-06-01T19:17:18.037Z,3.20
2018-06-01T19:19:46.332Z,2.70
2018-06-01T19:22:13.898Z,3.37
2018-06-01T19:24:41.441Z,3.03
2018-06-01T19:27:09.018Z,3.13
2018-06-01T19:29:36.585Z,3.03
2018-06-01T19:32:04.153Z,3.93
2018-06-01T19:34:37.069Z,3.23
2018-06-01T19:37:04.539Z,3.80
2018-06-01T19:39:32.865Z,3.50
2018-06-01T19:42:01.199Z,3.77
2018-06-01T19:44:29.499Z,3.30
2018-06-01T19:46:57.142Z,3.97
2018-06-01T19:49:24.725Z,3.50
2018-06-01T19:51:52.324Z,4.43
2018-06-01T19:54:20.702Z,3.60
2018-06-01T19:56:48.269Z,3.50
2018-06-01T19:59:15.818Z,3.23
2018-06-01T20:01:47.127Z,3.70
2018-06-01T20:04:15.556Z,3.97
2018-06-01T20:06:43.106Z,3.33
2018-06-01T20:09:16.069Z,3.80
2018-06-01T20:11:43.620Z,3.83
2018-06-01T20:14:11.204Z,3.60
2018-06-01T20:16:38.774Z,3.70
2018-06-01T20:19:06.339Z,4.00
2018-06-01T20:21:33.891Z,3.37
2018-06-01T20:24:02.241Z,4.00
2018-06-01T20:26:29.789Z,3.80
2018-06-01T20:28:57.343Z,3.83
2018-06-01T20:31:24.922Z,3.77
2018-06-01T20:33:52.480Z,4.13
2018-06-01T20:36:20.026Z,3.80
2018-06-01T20:38:47.605Z,4.13
2018-06-01T20:41:15.157Z,4.30
2018-06-01T20:43:42.708Z,3.80
2018-06-01T20:46:10.271Z,4.50
2018-06-01T20:48:37.819Z,3.50
2018-06-01T20:51:05.361Z,4.40
2018-06-01T20:53:33.712Z,4.37
2018-06-01T20:56:01.326Z,4.47
2018-06-01T20:58:28.880Z,4.30
2018-06-01T21:00:56.475Z,4.07
2018-06-01T21:03:24.789Z,3.93
2018-06-01T21:06:01.403Z,4.23
2018-06-01T21:08:28.962Z,3.90
2018-06-01T21:10:56.513Z,4.13
2018-06-01T21:13:24.101Z,3.90
2018-06-01T21:15:51.644Z,3.87
2018-06-01T21:18:19.204Z,4.37
2018-06-01T21:20:46.776Z,4.20
2018-06-01T21:23:14.319Z,3.77
2018-06-01T21:25:49.334Z,3.90
2018-06-01T21:28:18.016Z,3.80
2018-06-01T21:30:48.996Z,3.83
2018-06-01T21:33:16.760Z,4.47
2018-06-01T21:35:44.307Z,3.90
2018-06-01T21:38:12.092Z,4.27
2018-06-01T21:40:52.346Z,4.40
2018-06-01T21:43:19.954Z,4.23
2018-06-01T21:46:02.673Z,4.53
2018-06-01T21:48:51.168Z,4.53
2018-06-01T21:51:21.767Z,4.87
2018-06-01T21:53:55.142Z,4.63
2018-06-01T21:56:23.446Z,4.37
2018-06-01T21:58:50.984Z,4.27
2018-06-01T22:01:24.381Z,4.43
2018-06-01T22:03:51.926Z,4.60
2018-06-01T22:06:20.238Z,4.07
2018-06-01T22:08:47.814Z,4.50
2018-06-01T22:17:01.777Z,4.40
2018-06-01T22:19:39.556Z,4.67
2018-06-01T22:22:07.100Z,4.40
2018-06-01T22:24:35.417Z,4.30
2018-06-01T22:27:02.990Z,4.53
2018-06-01T22:29:30.533Z,4.80
2018-06-01T22:31:58.077Z,4.23
2018-06-01T22:34:29.857Z,4.40
2018-06-01T22:36:57.402Z,4.70
2018-06-01T22:39:24.954Z,4.27
2018-06-01T22:41:52.521Z,4.97
2018-06-01T22:44:20.069Z,4.50
2018-06-01T22:46:47.617Z,5.00
2018-06-01T22:49:15.181Z,4.70
2018-06-01T22:51:42.731Z,4.50
2018-06-01T22:54:11.043Z,4.67
2018-06-01T22:56:38.633Z,5.33
2018-06-01T22:59:06.180Z,4.63
2018-06-01T23:01:33.733Z,4.87
2018-06-01T23:04:01.301Z,5.00
2018-06-01T23:06:28.857Z,5.07
2018-06-01T23:08:56.416Z,4.70
2018-06-01T23:11:23.993Z,5.20
2018-06-01T23:13:51.542Z,4.80
2018-06-01T23:16:19.092Z,5.50
2018-06-01T23:19:04.099Z,5.00
2018-06-01T23:21:32.406Z,5.73
2018-06-01T23:23:59.966Z,5.80
2018-06-01T23:26:27.542Z,5.73
2018-06-01T23:28:55.091Z,5.63
2018-06-01T23:31:22.672Z,6.00
2018-06-01T23:33:51.018Z,5.80
2018-06-01T23:39:12.125Z,5.73
2018-06-01T23:41:40.440Z,5.27
2018-06-01T23:44:07.992Z,5.50
2018-06-01T23:46:35.570Z,5.83
2018-06-01T23:49:09.473Z,5.17
2018-06-01T23:51:37.058Z,5.30
2018-06-01T23:54:04.630Z,5.30
2018-06-01T23:56:49.332Z,5.93
2018-06-01T23:59:16.882Z,4.73
